Saigon Express — VRBT7 — position and weather

sailwx.info

Track history (hours):
 
Tides and Currents Weather Stations Pressure Air Temp Water Temp Dewpoint Dewpoint Depression Visibility Wind Speed Wind Dir Waves Ship Positions

Saigon Express

Last reported at 2015-Sep-01 21:34 UTC. Time now 2015-Sep-01 22:21 UTC.
Position N 39°47' E 000°54'.

Length 260 m; draft 9.9 m.

Type: Ship (hazmat cat A). MMSI: 477106800.

Date/timePositionNaut miles runAvg speedWind from/ knotsBaromVisibWave heightAir tempDewpointWater temp
2015-Sep-01 21:34N 39°47' E 000°54'1010.3
2015-Sep-01 20:34N 39°55' E 001°02'1010.3
2015-Sep-01 19:34N 40°04' E 001°09'1010.2
2015-Sep-01 18:34N 40°12' E 001°16'10 9.9
2015-Sep-01 17:33N 40°21' E 001°23'10 9.9
2015-Sep-01 16:34N 40°29' E 001°29'1010.0
2015-Sep-01 15:33N 40°38' E 001°37'1010.1
2015-Sep-01 14:33N 40°46' E 001°45'6 5.9
2015-Sep-01 13:33N 40°51' E 001°49'0 0.4
2015-Sep-01 12:33N 40°51' E 001°50'0 0.5
2015-Sep-01 11:33N 40°51' E 001°50'5 5.3
2015-Sep-01 10:33N 40°56' E 001°53'1010.0
2015-Sep-01 09:34N 41°04' E 001°60'1110.2
2015-Sep-01 08:29N 41°13' E 002°08'8 8.3
2015-Sep-01 07:30N 41°21' E 002°10'0 0.0
2015-Sep-01 05:07N 41°21' E 002°10'0 0.0
2015-Sep-01 03:13N 41°21' E 002°10'0 0.0
2015-Sep-01 01:19N 41°21' E 002°10'0 0.0
2015-Sep-01 00:13N 41°21' E 002°10'0 0.0
2015-Aug-31 21:13N 41°21' E 002°10'0 0.0
2015-Aug-31 18:32N 41°21' E 002°10'6 6.4
2015-Aug-31 17:33N 41°15' E 002°14'1 0.6
2015-Aug-31 16:32N 41°16' E 002°14'8 8.6
2015-Aug-31 15:33N 41°18' E 002°25'1212.1
2015-Aug-31 14:33N 41°20' E 002°41'1212.2
2015-Aug-31 13:33N 41°23' E 002°57'6112.1
2015-Aug-31 08:32N 41°45' E 004°12'1212.1
2015-Aug-31 07:33N 41°52' E 004°26'2712.5
2015-Aug-31 05:23N 42°06' E 004°57'1312.3
2015-Aug-31 04:18N 42°14' E 005°11'912.2
2015-Aug-31 03:33N 42°19' E 005°21'1212.0
2015-Aug-31 02:33N 42°25' E 005°36'1312.1
2015-Aug-31 01:27N 42°32' E 005°51'1212.2
2015-Aug-31 00:29N 42°38' E 006°04'1212.2
2015-Aug-30 23:32N 42°45' E 006°18'1312.4
2015-Aug-30 22:31N 42°51' E 006°32'1212.7
2015-Aug-30 21:33N 42°58' E 006°46'1312.6
2015-Aug-30 20:34N 43°05' E 007°01'1312.5
2015-Aug-30 19:33N 43°12' E 007°15'1212.4
2015-Aug-30 18:33N 43°18' E 007°30'1212.2
2015-Aug-30 17:33N 43°25' E 007°43'1212.3
2015-Aug-30 16:33N 43°32' E 007°57'1312.6
2015-Aug-30 15:34N 43°42' E 008°08'1312.8
2015-Aug-30 14:33N 43°51' E 008°20'1212.4
2015-Aug-30 13:33N 44°02' E 008°30'1312.6
2015-Aug-30 12:33N 44°13' E 008°36'1312.7
2015-Aug-30 11:34N 44°25' E 008°45'2 1.6
2015-Aug-30 10:33N 44°25' E 008°47'0 0.0
2015-Aug-30 09:33N 44°25' E 008°47'0 0.0
2015-Aug-30 08:33N 44°25' E 008°47'0 0.0
2015-Aug-30 07:33N 44°25' E 008°47'0 0.0
2015-Aug-30 06:33N 44°25' E 008°47'0 0.0
2015-Aug-30 05:33N 44°25' E 008°47'0 0.0
2015-Aug-30 04:24N 44°25' E 008°47'0 0.0
2015-Aug-30 03:33N 44°25' E 008°47'0 0.0
2015-Aug-30 02:30N 44°25' E 008°47'0 0.0
2015-Aug-30 01:33N 44°25' E 008°47'0 0.0
2015-Aug-30 00:33N 44°25' E 008°47'0 0.0
2015-Aug-29 23:27N 44°25' E 008°47'0 0.0
2015-Aug-29 22:33N 44°25' E 008°47'0 0.0
2015-Aug-29 21:33N 44°25' E 008°47'0 0.0
2015-Aug-29 20:33N 44°25' E 008°47'0 0.0
2015-Aug-29 19:33N 44°25' E 008°47'0 0.0
2015-Aug-29 18:33N 44°25' E 008°47'0 0.0
2015-Aug-29 17:32N 44°25' E 008°47'0 0.0
2015-Aug-29 16:32N 44°25' E 008°47'0 0.0
2015-Aug-29 15:32N 44°25' E 008°47'3 2.9
2015-Aug-29 14:33N 44°23' E 008°44'1010.2
2015-Aug-29 13:33N 44°13' E 008°48'1212.4
2015-Aug-29 12:33N 44°06' E 009°01'1212.2
2015-Aug-29 11:33N 43°58' E 009°15'1211.8
2015-Aug-29 10:33N 43°50' E 009°26'1211.7
2015-Aug-29 09:34N 43°41' E 009°37'1212.2
2015-Aug-29 08:33N 43°34' E 009°50'1212.3
2015-Aug-29 07:33N 43°30' E 010°07'9 8.3
2015-Aug-29 06:25N 43°34' E 010°18'0 0.3
2015-Aug-29 05:30N 43°34' E 010°18'0 0.0
2015-Aug-29 03:30N 43°34' E 010°18'0 0.0
2015-Aug-29 02:18N 43°34' E 010°18'0 0.0
2015-Aug-29 01:30N 43°34' E 010°18'0 0.0
2015-Aug-28 23:18N 43°34' E 010°18'0 0.0
2015-Aug-28 19:33N 43°34' E 010°18'0 0.0
2015-Aug-28 17:33N 43°34' E 010°18'0 0.0
2015-Aug-28 16:30N 43°34' E 010°18'0 0.0
2015-Aug-28 15:30N 43°34' E 010°18'0 0.0
2015-Aug-28 14:27N 43°34' E 010°18'0 0.0
2015-Aug-28 13:24N 43°34' E 010°18'0 0.0
2015-Aug-28 12:27N 43°34' E 010°18'0 0.0
2015-Aug-28 11:33N 43°34' E 010°18'0 0.0
2015-Aug-28 10:33N 43°34' E 010°18'4 4.2
2015-Aug-28 09:33N 43°31' E 010°15'1414.2
2015-Aug-28 08:34N 43°18' E 010°07'3614.4
2015-Aug-28 06:05N 42°44' E 009°55'2314.7
2015-Aug-28 04:33N 42°21' E 009°57'19514.7
2015-Aug-27 15:16N 39°06' E 009°43'1014.8
2015-Aug-27 14:33N 38°59' E 009°33'1414.0
2015-Aug-27 13:32N 39°02' E 009°15'1111.5
2015-Aug-27 12:33N 39°11' E 009°06'2 2.3
2015-Aug-27 11:33N 39°13' E 009°04'0 0.0
2015-Aug-27 10:33N 39°13' E 009°04'0 0.0
2015-Aug-27 09:33N 39°13' E 009°04'0 0.0
2015-Aug-27 08:33N 39°13' E 009°04'0 0.0
2015-Aug-27 07:33N 39°13' E 009°04'0 0.0
2015-Aug-27 06:33N 39°13' E 009°04'0 0.0
2015-Aug-27 05:33N 39°13' E 009°04'0 0.0
2015-Aug-27 04:33N 39°13' E 009°04'0 0.0
2015-Aug-27 03:33N 39°13' E 009°04'0 0.0
2015-Aug-27 02:33N 39°13' E 009°04'0 0.0
2015-Aug-27 01:33N 39°13' E 009°04'0 0.0
2015-Aug-27 00:33N 39°13' E 009°04'0 0.0
2015-Aug-26 23:33N 39°13' E 009°04'0 0.0
2015-Aug-26 22:32N 39°13' E 009°04'0 0.0
2015-Aug-26 21:32N 39°13' E 009°04'0 0.0
2015-Aug-26 20:32N 39°13' E 009°04'0 0.0
2015-Aug-26 19:32N 39°13' E 009°04'0 0.0
2015-Aug-26 18:32N 39°13' E 009°04'0 0.0
2015-Aug-26 17:32N 39°13' E 009°04'0 0.0
2015-Aug-26 16:32N 39°13' E 009°04'0 0.0
2015-Aug-26 15:32N 39°13' E 009°04'0 0.0
2015-Aug-26 14:32N 39°13' E 009°04'0 0.0
2015-Aug-26 13:32N 39°13' E 009°04'0 0.0
2015-Aug-26 12:32N 39°13' E 009°04'0 0.0
2015-Aug-26 11:32N 39°13' E 009°04'0 0.0
2015-Aug-26 10:32N 39°13' E 009°04'0 0.0
2015-Aug-26 09:32N 39°13' E 009°04'0 0.0
2015-Aug-26 08:32N 39°13' E 009°04'0 0.0
2015-Aug-26 07:32N 39°13' E 009°04'0 0.0
2015-Aug-26 06:32N 39°13' E 009°04'0 0.0
2015-Aug-26 05:32N 39°13' E 009°04'0 0.0
2015-Aug-26 04:32N 39°13' E 009°04'3 3.1
2015-Aug-26 03:33N 39°11' E 009°06'1110.6
2015-Aug-26 02:33N 38°60' E 009°07'1514.8
2015-Aug-26 01:33N 38°46' E 008°60'1914.5
2015-Aug-26 00:14N 38°30' E 008°47'1014.7
2015-Aug-25 23:33N 38°26' E 008°35'29114.5
2015-Aug-25 03:32N 37°15' E 002°38'1514.9
2015-Aug-25 02:31N 37°11' E 002°19'1715.1
2015-Aug-25 01:22N 37°08' E 001°58'1214.7
2015-Aug-25 00:33N 37°05' E 001°43'1514.6
2015-Aug-24 23:33N 37°02' E 001°26'1614.9
2015-Aug-24 22:28N 36°58' E 001°06'1415.3
2015-Aug-24 21:33N 36°55' E 000°49'1515.1
2015-Aug-24 20:33N 36°51' E 000°31'1514.8
2015-Aug-24 19:33N 36°48' E 000°13'1414.4
2015-Aug-24 18:34N 36°44' W 000°05'1514.4
2015-Aug-24 17:33N 36°41' W 000°22'1514.5
2015-Aug-24 16:31N 36°37' W 000°40'  
Track history (hours):
 
Tides and Currents Weather Stations Pressure Air Temp Water Temp Dewpoint Dewpoint Depression Visibility Wind Speed Wind Dir Waves Ship Positions

Saigon Express

Last reported at 2015-Sep-01 21:34 UTC. Time now 2015-Sep-01 22:21 UTC.
Position N 39°47' E 000°54'.

Length 260 m; draft 9.9 m.

Type: Ship (hazmat cat A). MMSI: 477106800.

Date/timePositionNaut miles runAvg speedWind from/ knotsBaromVisibWave heightAir tempDewpointWater temp
2015-Sep-01 21:34N 39°47' E 000°54'1010.3
2015-Sep-01 20:34N 39°55' E 001°02'1010.3
2015-Sep-01 19:34N 40°04' E 001°09'1010.2
2015-Sep-01 18:34N 40°12' E 001°16'10 9.9
2015-Sep-01 17:33N 40°21' E 001°23'10 9.9
2015-Sep-01 16:34N 40°29' E 001°29'1010.0
2015-Sep-01 15:33N 40°38' E 001°37'1010.1
2015-Sep-01 14:33N 40°46' E 001°45'6 5.9
2015-Sep-01 13:33N 40°51' E 001°49'0 0.4
2015-Sep-01 12:33N 40°51' E 001°50'0 0.5
2015-Sep-01 11:33N 40°51' E 001°50'5 5.3
2015-Sep-01 10:33N 40°56' E 001°53'1010.0
2015-Sep-01 09:34N 41°04' E 001°60'1110.2
2015-Sep-01 08:29N 41°13' E 002°08'8 8.3
2015-Sep-01 07:30N 41°21' E 002°10'0 0.0
2015-Sep-01 05:07N 41°21' E 002°10'0 0.0
2015-Sep-01 03:13N 41°21' E 002°10'0 0.0
2015-Sep-01 01:19N 41°21' E 002°10'0 0.0
2015-Sep-01 00:13N 41°21' E 002°10'0 0.0
2015-Aug-31 21:13N 41°21' E 002°10'0 0.0
2015-Aug-31 18:32N 41°21' E 002°10'6 6.4
2015-Aug-31 17:33N 41°15' E 002°14'1 0.6
2015-Aug-31 16:32N 41°16' E 002°14'8 8.6
2015-Aug-31 15:33N 41°18' E 002°25'1212.1
2015-Aug-31 14:33N 41°20' E 002°41'1212.2
2015-Aug-31 13:33N 41°23' E 002°57'6112.1
2015-Aug-31 08:32N 41°45' E 004°12'1212.1
2015-Aug-31 07:33N 41°52' E 004°26'2712.5
2015-Aug-31 05:23N 42°06' E 004°57'1312.3
2015-Aug-31 04:18N 42°14' E 005°11'912.2
2015-Aug-31 03:33N 42°19' E 005°21'1212.0
2015-Aug-31 02:33N 42°25' E 005°36'1312.1
2015-Aug-31 01:27N 42°32' E 005°51'1212.2
2015-Aug-31 00:29N 42°38' E 006°04'1212.2
2015-Aug-30 23:32N 42°45' E 006°18'1312.4
2015-Aug-30 22:31N 42°51' E 006°32'1212.7
2015-Aug-30 21:33N 42°58' E 006°46'1312.6
2015-Aug-30 20:34N 43°05' E 007°01'1312.5
2015-Aug-30 19:33N 43°12' E 007°15'1212.4
2015-Aug-30 18:33N 43°18' E 007°30'1212.2
2015-Aug-30 17:33N 43°25' E 007°43'1212.3
2015-Aug-30 16:33N 43°32' E 007°57'1312.6
2015-Aug-30 15:34N 43°42' E 008°08'1312.8
2015-Aug-30 14:33N 43°51' E 008°20'1212.4
2015-Aug-30 13:33N 44°02' E 008°30'1312.6
2015-Aug-30 12:33N 44°13' E 008°36'1312.7
2015-Aug-30 11:34N 44°25' E 008°45'2 1.6
2015-Aug-30 10:33N 44°25' E 008°47'0 0.0
2015-Aug-30 09:33N 44°25' E 008°47'0 0.0
2015-Aug-30 08:33N 44°25' E 008°47'0 0.0
2015-Aug-30 07:33N 44°25' E 008°47'0 0.0
2015-Aug-30 06:33N 44°25' E 008°47'0 0.0
2015-Aug-30 05:33N 44°25' E 008°47'0 0.0
2015-Aug-30 04:24N 44°25' E 008°47'0 0.0
2015-Aug-30 03:33N 44°25' E 008°47'0 0.0
2015-Aug-30 02:30N 44°25' E 008°47'0 0.0
2015-Aug-30 01:33N 44°25' E 008°47'0 0.0
2015-Aug-30 00:33N 44°25' E 008°47'0 0.0
2015-Aug-29 23:27N 44°25' E 008°47'0 0.0
2015-Aug-29 22:33N 44°25' E 008°47'0 0.0
2015-Aug-29 21:33N 44°25' E 008°47'0 0.0
2015-Aug-29 20:33N 44°25' E 008°47'0 0.0
2015-Aug-29 19:33N 44°25' E 008°47'0 0.0
2015-Aug-29 18:33N 44°25' E 008°47'0 0.0
2015-Aug-29 17:32N 44°25' E 008°47'0 0.0
2015-Aug-29 16:32N 44°25' E 008°47'0 0.0
2015-Aug-29 15:32N 44°25' E 008°47'3 2.9
2015-Aug-29 14:33N 44°23' E 008°44'1010.2
2015-Aug-29 13:33N 44°13' E 008°48'1212.4
2015-Aug-29 12:33N 44°06' E 009°01'1212.2
2015-Aug-29 11:33N 43°58' E 009°15'1211.8
2015-Aug-29 10:33N 43°50' E 009°26'1211.7
2015-Aug-29 09:34N 43°41' E 009°37'1212.2
2015-Aug-29 08:33N 43°34' E 009°50'1212.3
2015-Aug-29 07:33N 43°30' E 010°07'9 8.3
2015-Aug-29 06:25N 43°34' E 010°18'0 0.3
2015-Aug-29 05:30N 43°34' E 010°18'0 0.0
2015-Aug-29 03:30N 43°34' E 010°18'0 0.0
2015-Aug-29 02:18N 43°34' E 010°18'0 0.0
2015-Aug-29 01:30N 43°34' E 010°18'0 0.0
2015-Aug-28 23:18N 43°34' E 010°18'0 0.0
2015-Aug-28 19:33N 43°34' E 010°18'0 0.0
2015-Aug-28 17:33N 43°34' E 010°18'0 0.0
2015-Aug-28 16:30N 43°34' E 010°18'0 0.0
2015-Aug-28 15:30N 43°34' E 010°18'0 0.0
2015-Aug-28 14:27N 43°34' E 010°18'0 0.0
2015-Aug-28 13:24N 43°34' E 010°18'0 0.0
2015-Aug-28 12:27N 43°34' E 010°18'0 0.0
2015-Aug-28 11:33N 43°34' E 010°18'0 0.0
2015-Aug-28 10:33N 43°34' E 010°18'4 4.2
2015-Aug-28 09:33N 43°31' E 010°15'1414.2
2015-Aug-28 08:34N 43°18' E 010°07'3614.4
2015-Aug-28 06:05N 42°44' E 009°55'2314.7
2015-Aug-28 04:33N 42°21' E 009°57'19514.7
2015-Aug-27 15:16N 39°06' E 009°43'1014.8
2015-Aug-27 14:33N 38°59' E 009°33'1414.0
2015-Aug-27 13:32N 39°02' E 009°15'1111.5
2015-Aug-27 12:33N 39°11' E 009°06'2 2.3
2015-Aug-27 11:33N 39°13' E 009°04'0 0.0
2015-Aug-27 10:33N 39°13' E 009°04'0 0.0
2015-Aug-27 09:33N 39°13' E 009°04'0 0.0
2015-Aug-27 08:33N 39°13' E 009°04'0 0.0
2015-Aug-27 07:33N 39°13' E 009°04'0 0.0
2015-Aug-27 06:33N 39°13' E 009°04'0 0.0
2015-Aug-27 05:33N 39°13' E 009°04'0 0.0
2015-Aug-27 04:33N 39°13' E 009°04'0 0.0
2015-Aug-27 03:33N 39°13' E 009°04'0 0.0
2015-Aug-27 02:33N 39°13' E 009°04'0 0.0
2015-Aug-27 01:33N 39°13' E 009°04'0 0.0
2015-Aug-27 00:33N 39°13' E 009°04'0 0.0
2015-Aug-26 23:33N 39°13' E 009°04'0 0.0
2015-Aug-26 22:32N 39°13' E 009°04'0 0.0
2015-Aug-26 21:32N 39°13' E 009°04'0 0.0
2015-Aug-26 20:32N 39°13' E 009°04'0 0.0
2015-Aug-26 19:32N 39°13' E 009°04'0 0.0
2015-Aug-26 18:32N 39°13' E 009°04'0 0.0
2015-Aug-26 17:32N 39°13' E 009°04'0 0.0
2015-Aug-26 16:32N 39°13' E 009°04'0 0.0
2015-Aug-26 15:32N 39°13' E 009°04'0 0.0
2015-Aug-26 14:32N 39°13' E 009°04'0 0.0
2015-Aug-26 13:32N 39°13' E 009°04'0 0.0
2015-Aug-26 12:32N 39°13' E 009°04'0 0.0
2015-Aug-26 11:32N 39°13' E 009°04'0 0.0
2015-Aug-26 10:32N 39°13' E 009°04'0 0.0
2015-Aug-26 09:32N 39°13' E 009°04'0 0.0
2015-Aug-26 08:32N 39°13' E 009°04'0 0.0
2015-Aug-26 07:32N 39°13' E 009°04'0 0.0
2015-Aug-26 06:32N 39°13' E 009°04'0 0.0
2015-Aug-26 05:32N 39°13' E 009°04'0 0.0
2015-Aug-26 04:32N 39°13' E 009°04'3 3.1
2015-Aug-26 03:33N 39°11' E 009°06'1110.6
2015-Aug-26 02:33N 38°60' E 009°07'1514.8
2015-Aug-26 01:33N 38°46' E 008°60'1914.5
2015-Aug-26 00:14N 38°30' E 008°47'1014.7
2015-Aug-25 23:33N 38°26' E 008°35'29114.5
2015-Aug-25 03:32N 37°15' E 002°38'1514.9
2015-Aug-25 02:31N 37°11' E 002°19'1715.1
2015-Aug-25 01:22N 37°08' E 001°58'1214.7
2015-Aug-25 00:33N 37°05' E 001°43'1514.6
2015-Aug-24 23:33N 37°02' E 001°26'1614.9
2015-Aug-24 22:28N 36°58' E 001°06'1415.3
2015-Aug-24 21:33N 36°55' E 000°49'1515.1
2015-Aug-24 20:33N 36°51' E 000°31'1514.8
2015-Aug-24 19:33N 36°48' E 000°13'1414.4
2015-Aug-24 18:34N 36°44' W 000°05'1514.4
2015-Aug-24 17:33N 36°41' W 000°22'1514.5
2015-Aug-24 16:31N 36°37' W 000°40'  

Dump ship's entire track history